Time;durP1;ratioP1;P1;durP2;ratioP2;P2;SDS_P1;SDS_P2;PMS_P1;PMS_P2;Temp;Humidity;BMP_temperature;BMP_pressure;BME280_temperature;BME280_humidity;BME280_pressure;Samples;Min_cycle;Max_cycle;Signal;HPM_P1;HPM_P2
2022/10/11 00:00:40;;;;;;;1.50;1.40;;;;;;;14.07;100.00;95908.37;4310927;33;20190;-63
2022/10/11 00:03:05;;;;;;;1.00;1.00;;;;;;;14.09;99.93;95906.19;4312090;33;20186;-63
2022/10/11 00:05:32;;;;;;;1.17;1.17;;;;;;;14.16;99.96;95909.22;4302435;33;20233;-63
2022/10/11 00:07:57;;;;;;;0.70;0.70;;;;;;;13.98;100.00;95915.50;4305366;32;20209;-63
2022/10/11 00:10:23;;;;;;;1.47;1.40;;;;;;;14.13;100.00;95907.16;4301029;32;20190;-63
2022/10/11 00:12:54;;;;;;;1.17;1.17;;;;;;;14.09;100.00;95914.19;4309901;32;20202;-63
2022/10/11 00:15:21;;;;;;;0.80;0.80;;;;;;;14.17;100.00;95918.00;4302613;32;20211;-63
2022/10/11 00:17:48;;;;;;;2.73;1.27;;;;;;;14.20;100.00;95918.19;4313113;33;20173;-63
2022/10/11 00:20:16;;;;;;;0.77;0.77;;;;;;;14.05;100.00;95915.87;4270812;33;20254;-63
2022/10/11 00:22:42;;;;;;;0.70;0.70;;;;;;;13.87;100.00;95919.47;4319602;32;20201;-63
2022/10/11 00:25:15;;;;;;;0.97;0.97;;;;;;;14.00;100.00;95923.97;4342959;32;20190;-63
2022/10/11 00:27:40;;;;;;;1.17;1.03;;;;;;;13.96;100.00;95928.34;4319015;32;20185;-63
2022/10/11 00:30:07;;;;;;;1.73;1.60;;;;;;;13.98;100.00;95932.28;4302876;33;20232;-63
2022/10/11 00:32:35;;;;;;;1.47;1.37;;;;;;;14.01;100.00;95930.91;4323603;32;20276;-63
2022/10/11 00:35:05;;;;;;;1.90;1.10;;;;;;;14.00;100.00;95934.66;4319413;32;20223;-63
2022/10/11 00:37:33;;;;;;;0.93;0.93;;;;;;;14.02;100.00;95927.94;4341947;32;20233;-63
2022/10/11 00:39:59;;;;;;;2.13;1.50;;;;;;;13.95;100.00;95924.09;4306957;33;20198;-63
2022/10/11 00:42:26;;;;;;;0.90;0.90;;;;;;;14.02;100.00;95932.47;4311257;32;20203;-63
2022/10/11 00:44:51;;;;;;;0.47;0.47;;;;;;;13.97;100.00;95937.91;4329838;33;20233;-63
2022/10/11 00:47:20;;;;;;;0.90;0.90;;;;;;;13.94;100.00;95936.63;4309357;32;20185;-63
2022/10/11 00:49:54;;;;;;;1.00;1.00;;;;;;;13.91;100.00;95939.91;4341888;32;20208;-63
2022/10/11 00:52:39;;;;;;;0.87;0.87;;;;;;;13.91;100.00;95947.91;4333884;32;20212;-63
2022/10/11 00:55:13;;;;;;;0.97;0.97;;;;;;;13.85;100.00;95949.09;4260579;33;20344;-63
2022/10/11 00:57:42;;;;;;;0.70;0.70;;;;;;;13.81;100.00;95953.44;4286105;33;20324;-63
2022/10/11 01:00:13;;;;;;;0.90;0.90;;;;;;;13.84;100.00;95952.06;4339440;33;20201;-63
2022/10/11 01:02:42;;;;;;;0.77;0.77;;;;;;;13.87;100.00;95959.47;4321752;33;20303;-63
2022/10/11 01:05:15;;;;;;;1.20;1.20;;;;;;;13.83;100.00;95953.16;4343346;33;20232;-63
2022/10/11 01:07:44;;;;;;;0.70;0.70;;;;;;;13.83;100.00;95955.81;4316460;33;20257;-63
2022/10/11 01:10:11;;;;;;;0.93;0.93;;;;;;;13.90;100.00;95956.22;4328379;32;20185;-63
2022/10/11 01:12:59;;;;;;;0.63;0.63;;;;;;;13.89;100.00;95965.31;4300520;33;20287;-63
2022/10/11 01:15:29;;;;;;;0.90;0.90;;;;;;;13.91;100.00;95960.47;4337566;32;20297;-63
2022/10/11 01:18:32;;;;;;;0.90;0.90;;;;;;;13.94;100.00;95963.31;4318239;33;20253;-63
2022/10/11 01:21:19;;;;;;;1.40;1.30;;;;;;;14.01;100.00;95962.91;4306802;33;20272;-63
2022/10/11 01:24:17;;;;;;;0.57;0.57;;;;;;;14.08;100.00;95963.31;4332693;32;20186;-65
2022/10/11 01:26:48;;;;;;;2.00;1.37;;;;;;;14.06;99.96;95960.16;4331991;33;20186;-63
2022/10/11 01:29:22;;;;;;;1.50;0.90;;;;;;;14.08;100.00;95952.63;4320931;33;20185;-63
2022/10/11 01:32:18;;;;;;;1.60;1.50;;;;;;;14.08;99.82;95956.09;4320053;32;20227;-63
2022/10/11 01:34:54;;;;;;;1.20;1.20;;;;;;;14.06;100.00;95955.59;4325473;33;20208;-63
2022/10/11 01:37:45;;;;;;;1.20;1.10;;;;;;;14.12;99.98;95955.50;4325016;33;20252;-63
2022/10/11 01:40:20;;;;;;;1.20;1.10;;;;;;;14.09;99.95;95963.00;4292890;33;20208;-63
2022/10/11 01:42:46;;;;;;;2.43;1.13;;;;;;;14.17;99.80;95956.16;4344006;32;20199;-64
2022/10/11 01:45:17;;;;;;;0.90;0.90;;;;;;;14.12;99.96;95950.94;4334112;32;20208;-63
2022/10/11 01:47:44;;;;;;;1.50;1.40;;;;;;;14.13;99.78;95954.41;4335962;32;20220;-63
2022/10/11 01:50:31;;;;;;;1.63;1.53;;;;;;;14.17;99.95;95953.47;4319003;32;20220;-63
2022/10/11 01:53:01;;;;;;;1.10;1.10;;;;;;;14.20;99.84;95960.91;4313962;32;20248;-63
2022/10/11 01:55:42;;;;;;;1.10;1.10;;;;;;;14.20;99.73;95960.09;4313288;32;20190;-63
2022/10/11 01:58:32;;;;;;;1.27;1.23;;;;;;;14.20;99.75;95958.22;4330118;32;20208;-63
2022/10/11 02:01:23;;;;;;;1.20;1.20;;;;;;;14.26;99.89;95953.56;4341834;32;20185;-63
2022/10/11 02:04:04;;;;;;;0.70;0.70;;;;;;;14.19;99.97;95958.53;4317412;33;20207;-63
2022/10/11 02:06:52;;;;;;;1.07;1.07;;;;;;;14.08;100.00;95956.09;4333164;32;20212;-63
2022/10/11 02:09:35;;;;;;;2.13;1.30;;;;;;;14.17;100.00;95961.50;4304649;32;20200;-64
2022/10/11 02:12:06;;;;;;;1.57;1.47;;;;;;;14.19;100.00;95953.97;4333974;32;20238;-63
2022/10/11 02:14:41;;;;;;;1.03;1.03;;;;;;;14.21;100.00;95959.03;4341059;32;20271;-64
2022/10/11 02:17:12;;;;;;;3.80;1.63;;;;;;;14.18;100.00;95955.06;4314509;33;20264;-63
2022/10/11 02:19:43;;;;;;;0.77;0.77;;;;;;;14.21;100.00;95946.47;4272462;33;20195;-63
2022/10/11 02:22:18;;;;;;;1.43;1.43;;;;;;;14.25;100.00;95947.44;4310270;32;20193;-63
2022/10/11 02:24:48;;;;;;;1.10;1.10;;;;;;;14.28;100.00;95941.50;4327681;32;20190;-63
2022/10/11 02:27:20;;;;;;;18.13;1.93;;;;;;;14.27;100.00;95950.59;4315668;33;20204;-63
2022/10/11 02:29:52;;;;;;;1.70;1.60;;;;;;;14.27;100.00;95945.28;4296070;33;20221;-63
2022/10/11 02:32:19;;;;;;;1.27;1.07;;;;;;;14.23;100.00;95941.62;4333020;32;20197;-63
2022/10/11 02:34:56;;;;;;;7.93;2.20;;;;;;;14.21;100.00;95941.13;4330069;32;20190;-63
2022/10/11 02:37:30;;;;;;;1.17;1.17;;;;;;;14.16;100.00;95940.44;4341769;32;20247;-63
2022/10/11 02:40:03;;;;;;;0.87;0.87;;;;;;;14.22;100.00;95940.03;4331088;32;20182;-63
2022/10/11 02:42:37;;;;;;;1.30;1.30;;;;;;;14.28;100.00;95944.19;4312352;33;20204;-63
2022/10/11 02:45:16;;;;;;;1.03;1.03;;;;;;;14.34;100.00;95945.63;4321845;33;20185;-63
2022/10/11 02:47:43;;;;;;;1.17;1.10;;;;;;;14.27;100.00;95941.81;4330665;32;20192;-63
2022/10/11 02:50:13;;;;;;;1.30;1.30;;;;;;;14.25;100.00;95947.44;4294249;32;20273;-63
2022/10/11 02:52:39;;;;;;;1.10;1.10;;;;;;;14.15;100.00;95939.66;4313976;32;20189;-64
2022/10/11 02:55:07;;;;;;;1.07;0.93;;;;;;;14.17;100.00;95942.81;4311766;32;20244;-63
2022/10/11 02:57:33;;;;;;;1.43;1.33;;;;;;;14.21;100.00;95935.78;4304713;33;20194;-63
2022/10/11 02:59:58;;;;;;;1.33;1.33;;;;;;;14.18;100.00;95941.72;4313507;33;20257;-63
2022/10/11 03:02:25;;;;;;;1.43;1.37;;;;;;;14.24;100.00;95943.19;4328111;32;20207;-63
2022/10/11 03:04:51;;;;;;;1.43;1.43;;;;;;;14.32;100.00;95947.84;4322492;32;20294;-63
2022/10/11 03:07:16;;;;;;;1.10;1.10;;;;;;;14.35;100.00;95944.53;4298710;33;20194;-63
2022/10/11 03:09:43;;;;;;;1.47;0.83;;;;;;;14.30;100.00;95939.34;4323829;32;20189;-63
2022/10/11 03:12:09;;;;;;;5.70;1.23;;;;;;;14.19;100.00;95943.31;4335471;32;20272;-63
2022/10/11 03:14:35;;;;;;;1.20;1.20;;;;;;;14.12;100.00;95936.81;4297228;33;20205;-63
2022/10/11 03:17:02;;;;;;;1.00;1.00;;;;;;;14.09;100.00;95943.53;4324878;32;20221;-63
2022/10/11 03:19:28;;;;;;;1.10;1.10;;;;;;;14.23;100.00;95948.84;4324950;32;20204;-63
2022/10/11 03:21:54;;;;;;;0.90;0.90;;;;;;;14.05;100.00;95954.00;4338613;32;20209;-63
2022/10/11 03:24:21;;;;;;;1.00;1.00;;;;;;;14.15;100.00;95953.00;4323520;32;20198;-63
2022/10/11 03:26:47;;;;;;;0.50;0.50;;;;;;;14.23;100.00;95965.62;4338811;32;20222;-63
2022/10/11 03:29:14;;;;;;;1.60;1.50;;;;;;;14.25;100.00;95968.81;4260709;33;20197;-63
2022/10/11 03:31:41;;;;;;;0.70;0.70;;;;;;;14.32;100.00;95968.41;4311184;33;20250;-63
2022/10/11 03:34:06;;;;;;;1.13;1.13;;;;;;;14.35;99.91;95981.91;4302743;33;20209;-63
2022/10/11 03:36:32;;;;;;;2.30;1.07;;;;;;;14.29;100.00;95983.13;4335587;32;20200;-63
2022/10/11 03:38:59;;;;;;;5.47;1.10;;;;;;;14.26;100.00;95975.72;4316968;32;20241;-63
2022/10/11 03:41:25;;;;;;;0.97;0.97;;;;;;;14.21;100.00;95972.38;4331112;32;20193;-63
2022/10/11 03:43:52;;;;;;;1.67;0.87;;;;;;;14.26;100.00;95975.72;4328258;32;20287;-63
2022/10/11 03:46:18;;;;;;;0.83;0.83;;;;;;;14.29;100.00;95975.13;4335143;32;20189;-63
2022/10/11 03:48:47;;;;;;;2.17;1.67;;;;;;;14.28;99.72;95981.56;4319508;32;20200;-63
2022/10/11 03:51:13;;;;;;;1.23;1.00;;;;;;;14.31;99.80;95978.28;4315904;33;20185;-63
2022/10/11 03:53:39;;;;;;;1.40;1.30;;;;;;;14.30;99.48;95983.91;4339945;32;20186;-63
2022/10/11 03:56:05;;;;;;;1.03;1.03;;;;;;;14.28;99.41;95986.09;4330853;32;20278;-63
2022/10/11 03:58:30;;;;;;;0.73;0.73;;;;;;;14.37;98.98;95993.09;4330572;32;20193;-63
2022/10/11 04:00:55;;;;;;;0.80;0.80;;;;;;;14.16;99.53;95994.59;4344718;32;20201;-63
2022/10/11 04:03:21;;;;;;;1.13;1.13;;;;;;;14.27;99.24;95997.88;4343900;32;20244;-63
2022/10/11 04:05:46;;;;;;;0.50;0.50;;;;;;;14.20;99.53;95989.47;4342102;32;20202;-64
2022/10/11 04:08:12;;;;;;;0.83;0.63;;;;;;;14.06;100.00;95997.50;4332371;32;20211;-63
2022/10/11 04:10:38;;;;;;;1.43;1.33;;;;;;;14.03;100.00;95998.09;4344213;32;20195;-63
2022/10/11 04:13:04;;;;;;;1.10;1.10;;;;;;;14.09;99.90;95996.91;4343651;32;20205;-63
2022/10/11 04:15:29;;;;;;;0.87;0.87;;;;;;;14.12;100.00;95998.97;4342607;32;20204;-63
2022/10/11 04:17:54;;;;;;;0.70;0.70;;;;;;;14.05;99.91;96007.37;4328515;32;20220;-63
2022/10/11 04:20:20;;;;;;;1.20;1.20;;;;;;;14.10;99.71;95999.28;4344270;32;20195;-63
2022/10/11 04:22:45;;;;;;;0.80;0.80;;;;;;;14.09;99.99;95996.91;4343382;32;20193;-63
2022/10/11 04:25:10;;;;;;;0.63;0.63;;;;;;;13.88;100.00;96004.53;4334654;32;20196;-63
2022/10/11 04:27:36;;;;;;;0.97;0.97;;;;;;;14.07;100.00;95999.06;4341848;32;20252;-63
2022/10/11 04:30:02;;;;;;;2.63;1.07;;;;;;;13.88;100.00;96001.06;4343318;32;20270;-63
2022/10/11 04:32:27;;;;;;;1.07;1.07;;;;;;;13.88;100.00;96001.06;4327230;32;20189;-63
2022/10/11 04:34:52;;;;;;;0.90;0.90;;;;;;;13.92;100.00;96002.06;4330604;32;20235;-63
2022/10/11 04:37:18;;;;;;;1.27;1.17;;;;;;;13.95;100.00;96001.44;4336272;32;20185;-63
2022/10/11 04:39:43;;;;;;;7.20;2.03;;;;;;;13.87;100.00;96002.16;4332656;33;20205;-63
2022/10/11 04:42:09;;;;;;;1.20;1.17;;;;;;;13.81;100.00;95995.31;4344308;32;20182;-63
2022/10/11 04:44:34;;;;;;;7.87;0.97;;;;;;;13.93;100.00;95987.59;4328305;33;20182;-63
2022/10/11 04:47:00;;;;;;;2.17;1.13;;;;;;;14.04;100.00;95989.00;4338442;33;20201;-63
2022/10/11 04:49:25;;;;;;;1.00;0.87;;;;;;;14.05;99.66;95990.56;4342802;32;20172;-63
2022/10/11 04:51:50;;;;;;;1.60;1.33;;;;;;;14.07;99.55;95991.87;4326749;32;20232;-63
2022/10/11 04:54:16;;;;;;;1.40;1.20;;;;;;;14.11;98.93;95989.41;4332109;33;20212;-63
2022/10/11 04:56:42;;;;;;;1.87;1.07;;;;;;;14.03;99.17;96001.53;4339501;32;20253;-63
2022/10/11 04:59:07;;;;;;;1.07;0.80;;;;;;;13.94;99.77;95999.84;4330188;33;20233;-63
2022/10/11 05:01:33;;;;;;;0.73;0.73;;;;;;;13.97;99.73;96001.94;4343375;33;20211;-63
2022/10/11 05:03:58;;;;;;;1.20;1.10;;;;;;;14.05;99.47;95995.91;4329785;33;20193;-63
2022/10/11 05:06:23;;;;;;;0.90;0.90;;;;;;;14.04;99.00;96002.34;4343737;33;20211;-64
2022/10/11 05:08:49;;;;;;;1.13;1.13;;;;;;;13.97;99.56;95999.28;4341022;32;20180;-63
2022/10/11 05:11:16;;;;;;;0.70;0.70;;;;;;;13.98;99.66;95998.19;4332182;32;20260;-63
2022/10/11 05:13:42;;;;;;;1.20;1.20;;;;;;;14.05;99.18;95991.37;4330034;32;20198;-63
2022/10/11 05:16:08;;;;;;;1.17;1.17;;;;;;;14.16;98.68;95997.28;4339002;32;20224;-63
2022/10/11 05:18:34;;;;;;;9.40;1.73;;;;;;;14.06;99.28;96002.84;4332940;32;20261;-63
2022/10/11 05:21:04;;;;;;;0.60;0.60;;;;;;;14.12;98.97;95996.31;4345389;32;20200;-63
2022/10/11 05:23:32;;;;;;;1.47;1.37;;;;;;;14.18;98.61;95999.66;4341245;32;20263;-63
2022/10/11 05:25:57;;;;;;;20.23;1.70;;;;;;;14.04;98.93;95997.00;4336804;32;20197;-63
2022/10/11 05:28:23;;;;;;;0.97;0.97;;;;;;;14.01;99.01;95998.38;4342142;32;20232;-64
2022/10/11 05:30:48;;;;;;;10.93;1.13;;;;;;;13.97;99.52;95992.06;4341398;32;20292;-63
2022/10/11 05:33:13;;;;;;;0.60;0.60;;;;;;;13.97;99.65;96004.59;4332763;32;20193;-63
2022/10/11 05:35:39;;;;;;;1.07;1.07;;;;;;;13.98;99.71;96009.66;4341013;32;20228;-63
2022/10/11 05:38:04;;;;;;;1.30;1.30;;;;;;;13.99;99.75;96003.22;4345056;32;20260;-64
2022/10/11 05:40:30;;;;;;;0.73;0.73;;;;;;;13.98;100.00;96012.31;4341426;32;20210;-63
2022/10/11 05:42:55;;;;;;;0.77;0.77;;;;;;;14.04;99.48;96008.47;4330626;32;20200;-63
2022/10/11 05:45:21;;;;;;;1.10;1.10;;;;;;;14.00;99.73;96004.81;4332783;32;20259;-63
2022/10/11 05:47:46;;;;;;;2.90;1.60;;;;;;;14.07;99.36;96017.75;4331549;33;20194;-63
2022/10/11 05:50:11;;;;;;;1.60;1.60;;;;;;;14.07;99.08;96015.09;4341326;32;20264;-63
2022/10/11 05:52:36;;;;;;;0.93;0.93;;;;;;;14.14;98.97;96017.34;4344578;32;20318;-63
2022/10/11 05:55:08;;;;;;;1.40;1.30;;;;;;;14.06;99.33;96019.62;4342324;32;20269;-63
2022/10/11 05:57:33;;;;;;;1.10;1.10;;;;;;;14.02;99.72;96023.97;4328570;32;20197;-63
2022/10/11 05:59:59;;;;;;;0.80;0.80;;;;;;;14.06;99.46;96032.19;4333486;32;20190;-63
2022/10/11 06:02:24;;;;;;;2.47;1.27;;;;;;;13.96;100.00;96027.81;4327024;32;20204;-63
2022/10/11 06:04:49;;;;;;;16.30;2.50;;;;;;;14.00;100.00;96036.03;4330440;32;20193;-54
2022/10/11 06:07:15;;;;;;;1.63;1.53;;;;;;;15.04;100.00;96027.12;4337980;32;20193;-55
2022/10/11 06:09:40;;;;;;;2.20;2.00;;;;;;;15.88;100.00;96029.03;4305635;33;20199;-55
2022/10/11 06:12:07;;;;;;;2.70;1.73;;;;;;;16.19;100.00;96028.97;4317277;32;20197;-55
2022/10/11 06:14:32;;;;;;;3.60;1.80;;;;;;;16.50;99.19;96027.78;4313406;32;20225;-51
2022/10/11 06:16:58;;;;;;;1.33;1.33;;;;;;;16.75;96.76;96025.47;4331777;32;20180;-55
2022/10/11 06:19:23;;;;;;;1.67;1.57;;;;;;;16.82;92.67;96025.78;4328530;32;20185;-54
2022/10/11 06:21:48;;;;;;;1.43;1.33;;;;;;;16.93;89.87;96042.34;4306348;32;20281;-51
2022/10/11 06:24:14;;;;;;;1.20;1.20;;;;;;;17.05;88.22;96032.53;4315252;33;20181;-49
2022/10/11 06:26:41;;;;;;;1.10;1.10;;;;;;;17.09;87.19;96038.84;4290611;33;20231;-52
2022/10/11 06:29:06;;;;;;;1.20;1.10;;;;;;;17.06;86.74;96039.47;4335342;32;20196;-53
2022/10/11 06:31:31;;;;;;;0.63;0.63;;;;;;;17.01;86.19;96045.03;4338267;32;20236;-52
2022/10/11 06:33:58;;;;;;;1.13;1.13;;;;;;;17.00;86.16;96038.09;4297177;32;20213;-55
2022/10/11 06:36:26;;;;;;;1.27;1.27;;;;;;;16.96;86.16;96047.84;4332884;32;20185;-54
2022/10/11 06:38:53;;;;;;;0.87;0.83;;;;;;;17.03;86.11;96050.88;4341145;32;20241;-54
2022/10/11 06:41:23;;;;;;;1.07;1.07;;;;;;;16.94;85.65;96044.69;4322221;32;20190;-57
2022/10/11 06:43:49;;;;;;;4.33;1.27;;;;;;;16.97;85.76;96049.44;4309136;32;20210;-54
2022/10/11 06:46:15;;;;;;;1.53;1.43;;;;;;;16.96;85.55;96055.09;4325193;32;20223;-56
2022/10/11 06:48:42;;;;;;;2.03;1.40;;;;;;;17.00;85.67;96054.16;4300421;33;20242;-56
2022/10/11 06:51:13;;;;;;;0.90;0.90;;;;;;;16.95;86.12;96057.00;4306986;32;20272;-64
2022/10/11 06:53:39;;;;;;;1.57;1.47;;;;;;;16.65;86.54;96060.59;4322098;32;20343;-63
2022/10/11 06:56:11;;;;;;;1.10;1.10;;;;;;;16.13;87.68;96060.44;4320771;32;20189;-62
2022/10/11 06:58:38;;;;;;;1.23;1.23;;;;;;;15.91;88.90;96065.88;4295578;33;21469;-63
2022/10/11 07:01:12;;;;;;;0.87;0.63;;;;;;;15.75;89.86;96068.97;4305292;33;20241;-62
2022/10/11 07:03:37;;;;;;;1.57;1.57;;;;;;;15.43;92.26;96066.53;4317692;33;20309;-65
2022/10/11 07:06:10;;;;;;;1.10;1.07;;;;;;;15.21;93.20;96069.22;4299194;33;20212;-61
2022/10/11 07:08:37;;;;;;;1.97;1.03;;;;;;;15.06;94.08;96070.38;4327881;32;20256;-65
2022/10/11 07:11:07;;;;;;;2.83;1.60;;;;;;;14.96;94.92;96073.28;4308554;33;20311;-61
2022/10/11 07:13:34;;;;;;;0.87;0.87;;;;;;;14.89;94.92;96073.69;4285776;33;20233;-63
2022/10/11 07:16:00;;;;;;;1.77;1.67;;;;;;;14.84;95.36;96075.69;4280953;33;20288;-62
2022/10/11 07:18:27;;;;;;;1.50;1.40;;;;;;;14.78;95.58;96077.66;4312497;33;20273;-63
2022/10/11 07:20:52;;;;;;;1.17;1.17;;;;;;;14.79;96.07;96079.25;4291816;32;20235;-65
2022/10/11 07:23:17;;;;;;;1.00;1.00;;;;;;;14.66;96.76;96080.09;4331639;32;20189;-64
2022/10/11 07:25:44;;;;;;;1.67;1.40;;;;;;;14.57;97.00;96088.00;4341380;32;20232;-65
2022/10/11 07:28:12;;;;;;;1.87;1.77;;;;;;;14.62;97.19;96095.91;4303273;33;20245;-64
2022/10/11 07:30:39;;;;;;;0.70;0.70;;;;;;;14.67;96.89;96090.47;4289930;33;20267;-55
2022/10/11 07:33:05;;;;;;;1.17;1.17;;;;;;;15.24;100.00;96090.00;4328106;32;20189;-54
2022/10/11 07:35:34;;;;;;;1.90;1.67;;;;;;;15.73;100.00;96091.75;4329754;32;20292;-57
2022/10/11 07:38:00;;;;;;;0.73;0.73;;;;;;;16.08;96.78;96098.06;4304463;33;20190;-52
2022/10/11 07:40:27;;;;;;;2.93;1.43;;;;;;;16.36;94.82;96099.44;4306464;32;20213;-52
2022/10/11 07:42:53;;;;;;;0.90;0.90;;;;;;;16.53;92.91;96097.91;4278388;33;20225;-56
2022/10/11 07:45:19;;;;;;;1.63;1.53;;;;;;;16.78;91.09;96097.97;4323196;32;20227;-56
2022/10/11 07:47:45;;;;;;;1.47;1.37;;;;;;;17.13;88.69;96098.78;4328703;32;20190;-57
2022/10/11 07:50:12;;;;;;;1.33;1.33;;;;;;;17.25;87.51;96097.38;4339791;32;20197;-55
2022/10/11 07:52:39;;;;;;;1.80;0.97;;;;;;;17.61;85.17;96095.12;4320130;32;21758;-57
2022/10/11 07:55:06;;;;;;;1.00;0.87;;;;;;;18.01;83.77;96098.37;4298221;32;20197;-56
2022/10/11 07:57:32;;;;;;;1.00;1.00;;;;;;;17.99;82.53;96105.16;4331813;32;20194;-54
2022/10/11 07:59:57;;;;;;;3.20;1.77;;;;;;;18.24;81.76;96104.28;4305048;33;20200;-63
2022/10/11 08:02:24;;;;;;;0.97;0.97;;;;;;;17.60;81.99;96098.91;4310104;32;20194;-62
2022/10/11 08:04:49;;;;;;;0.77;0.77;;;;;;;17.08;83.98;96101.63;4309855;32;20215;-62
2022/10/11 08:07:14;;;;;;;1.50;1.40;;;;;;;16.71;86.18;96104.91;4293640;33;20201;-61
2022/10/11 08:09:39;;;;;;;1.47;1.47;;;;;;;16.38;87.59;96110.62;4321209;32;20186;-60
2022/10/11 08:12:05;;;;;;;1.97;1.87;;;;;;;15.90;90.11;96107.13;4328249;32;20204;-63
2022/10/11 08:14:30;;;;;;;1.50;1.47;;;;;;;15.76;91.13;96112.56;4312723;32;20260;-62
2022/10/11 08:16:55;;;;;;;4.20;1.50;;;;;;;15.96;90.67;96113.91;4294468;33;20190;-61
2022/10/11 08:19:21;;;;;;;0.83;0.83;;;;;;;15.92;90.97;96113.75;4310982;33;20209;-66
2022/10/11 08:21:51;;;;;;;1.93;1.80;;;;;;;15.94;91.16;96110.75;4299895;33;20190;-63
2022/10/11 08:24:26;;;;;;;1.23;1.23;;;;;;;15.85;91.27;96107.25;4274039;33;20266;-63
2022/10/11 08:26:52;;;;;;;1.47;1.37;;;;;;;15.71;92.08;96112.69;4253619;33;20309;-63
2022/10/11 08:29:18;;;;;;;1.40;1.30;;;;;;;15.88;91.59;96115.44;4313788;32;20187;-63
2022/10/11 08:31:44;;;;;;;0.93;0.93;;;;;;;15.83;90.85;96120.91;4299416;33;20190;-63
2022/10/11 08:34:11;;;;;;;1.10;1.10;;;;;;;15.76;91.95;96121.37;4307993;33;20215;-63
2022/10/11 08:36:42;;;;;;;1.10;1.10;;;;;;;15.69;92.45;96118.34;4252266;33;20229;-62
2022/10/11 08:39:09;;;;;;;0.80;0.80;;;;;;;15.69;92.46;96121.00;4257964;33;20190;-63
2022/10/11 08:41:46;;;;;;;4.43;1.10;;;;;;;15.76;91.61;96117.91;4311603;33;20190;-62
2022/10/11 08:44:31;;;;;;;0.90;0.90;;;;;;;15.66;92.65;96124.28;4317576;33;20193;-62
2022/10/11 08:47:03;;;;;;;0.67;0.67;;;;;;;15.62;92.12;96123.31;4304242;33;20190;-62
2022/10/11 08:49:33;;;;;;;0.80;0.80;;;;;;;15.70;92.02;96127.94;4266485;33;20183;-64
2022/10/11 08:52:10;;;;;;;0.87;0.87;;;;;;;15.75;92.10;96122.47;4282063;33;20191;-63
2022/10/11 08:54:46;;;;;;;1.80;1.70;;;;;;;15.84;92.25;96127.06;4314268;33;20205;-61
2022/10/11 08:57:19;;;;;;;1.67;1.67;;;;;;;15.76;91.52;96128.59;4313103;33;20189;-61
2022/10/11 09:00:13;;;;;;;1.10;1.00;;;;;;;15.91;91.06;96130.09;4299177;33;20213;-64
2022/10/11 09:03:19;;;;;;;1.90;1.80;;;;;;;15.91;90.41;96133.56;4288576;33;20277;-63
2022/10/11 09:06:01;;;;;;;1.50;1.40;;;;;;;15.96;89.26;96132.66;4265572;33;20190;-62
2022/10/11 09:08:54;;;;;;;5.87;2.00;;;;;;;15.81;90.55;96123.91;4280234;33;20213;-61
2022/10/11 09:11:57;;;;;;;4.07;1.50;;;;;;;15.91;90.05;96127.44;4281848;33;20178;-62
2022/10/11 09:14:44;;;;;;;2.03;1.83;;;;;;;15.87;89.76;96131.81;4321028;32;20213;-62
2022/10/11 09:17:40;;;;;;;1.50;1.40;;;;;;;15.99;89.76;96126.69;4328198;32;20316;-61
2022/10/11 09:20:42;;;;;;;2.23;2.13;;;;;;;16.27;89.19;96127.28;4289079;33;20201;-61
2022/10/11 09:23:35;;;;;;;2.17;1.83;;;;;;;16.26;87.99;96117.66;4251402;33;20200;-62
2022/10/11 09:26:06;;;;;;;1.33;1.23;;;;;;;16.20;88.00;96124.25;4319389;32;20182;-62
2022/10/11 09:29:08;;;;;;;1.70;1.60;;;;;;;16.30;87.64;96127.44;4321696;33;20189;-63
2022/10/11 09:31:34;;;;;;;1.20;1.20;;;;;;;16.38;88.35;96121.34;4314239;33;20197;-63
2022/10/11 09:34:12;;;;;;;1.67;1.57;;;;;;;16.54;86.36;96120.91;4312563;32;20237;-63
2022/10/11 09:37:10;;;;;;;1.40;1.30;;;;;;;16.35;87.08;96121.97;4324222;32;20182;-61
2022/10/11 09:39:54;;;;;;;2.20;1.70;;;;;;;16.25;87.19;96116.06;4320895;32;20185;-63
2022/10/11 09:42:20;;;;;;;1.57;1.30;;;;;;;16.42;86.13;96121.47;4306984;32;20201;-62
2022/10/11 09:44:49;;;;;;;2.23;2.03;;;;;;;16.40;86.25;96115.69;4315072;33;20194;-63
2022/10/11 09:47:25;;;;;;;4.37;2.50;;;;;;;16.36;86.67;96120.84;4334467;32;20196;-64
2022/10/11 09:49:56;;;;;;;2.83;2.23;;;;;;;16.22;88.08;96122.84;4309449;33;20177;-62
2022/10/11 09:52:24;;;;;;;1.60;1.50;;;;;;;16.29;87.53;96120.50;4319756;32;20182;-62
2022/10/11 09:54:54;;;;;;;4.10;2.07;;;;;;;16.21;87.97;96118.56;4315354;33;20205;-64
2022/10/11 09:57:26;;;;;;;2.70;2.03;;;;;;;16.14;88.48;96119.03;4300680;33;20189;-64
2022/10/11 10:00:24;;;;;;;1.23;1.23;;;;;;;16.25;88.39;96116.88;4298176;33;20260;-63
2022/10/11 10:02:56;;;;;;;2.53;2.33;;;;;;;16.20;88.22;96121.59;4294591;32;20194;-63
2022/10/11 10:05:35;;;;;;;1.80;1.70;;;;;;;16.18;88.50;96124.56;4312993;32;20194;-63
2022/10/11 10:08:08;;;;;;;8.80;2.23;;;;;;;16.21;88.43;96123.16;4295041;32;20205;-63
2022/10/11 10:11:05;;;;;;;2.20;2.10;;;;;;;16.22;88.92;96117.47;4319387;32;20177;-63
2022/10/11 10:13:44;;;;;;;2.10;2.00;;;;;;;16.23;88.71;96120.94;4293917;32;20216;-63
2022/10/11 10:16:25;;;;;;;1.17;1.17;;;;;;;16.34;87.91;96116.91;4305675;33;20281;-63
2022/10/11 10:18:58;;;;;;;1.70;1.60;;;;;;;16.42;88.45;96119.59;4265095;33;20193;-64
2022/10/11 10:21:33;;;;;;;1.70;1.60;;;;;;;16.42;88.04;96124.16;4263988;33;20236;-64
2022/10/11 10:24:03;;;;;;;2.27;2.17;;;;;;;16.43;87.75;96123.06;4310249;33;20256;-63
2022/10/11 10:26:32;;;;;;;1.13;1.10;;;;;;;16.67;86.25;96128.06;4309183;33;20233;-63
2022/10/11 10:29:19;;;;;;;1.63;1.53;;;;;;;16.68;86.61;96129.63;4300036;33;20237;-63
2022/10/11 10:31:52;;;;;;;1.83;1.53;;;;;;;16.57;87.18;96131.00;4304568;33;20215;-63
2022/10/11 10:34:24;;;;;;;1.60;1.50;;;;;;;16.59;86.72;96129.59;4310817;33;20216;-62
2022/10/11 10:36:58;;;;;;;1.77;1.70;;;;;;;16.67;86.40;96131.53;4321525;33;20194;-63
2022/10/11 10:39:41;;;;;;;0.90;0.90;;;;;;;16.67;85.68;96128.06;4308660;33;20258;-65
2022/10/11 10:42:14;;;;;;;3.00;2.77;;;;;;;16.73;86.31;96127.59;4299533;33;20193;-64
2022/10/11 10:44:42;;;;;;;2.03;1.93;;;;;;;16.68;86.15;96127.75;4296089;33;20186;-64
2022/10/11 10:47:19;;;;;;;3.10;2.07;;;;;;;16.76;86.92;96126.19;4293695;33;20208;-64
2022/10/11 10:49:57;;;;;;;8.13;2.63;;;;;;;16.82;84.81;96124.97;4294082;33;20294;-64
2022/10/11 10:52:45;;;;;;;3.63;2.33;;;;;;;16.78;84.97;96121.31;4309386;33;20241;-64
2022/10/11 10:55:57;;;;;;;2.87;1.33;;;;;;;16.73;86.70;96118.78;4297853;33;20328;-64
2022/10/11 10:59:04;;;;;;;2.47;2.03;;;;;;;16.94;85.75;96118.97;4228799;33;20234;-64
2022/10/11 11:01:33;;;;;;;2.10;1.90;;;;;;;16.96;85.96;96122.13;4247312;33;20260;-64
2022/10/11 11:04:32;;;;;;;1.83;1.73;;;;;;;16.84;84.31;96117.38;4252642;33;20190;-64
2022/10/11 11:07:25;;;;;;;1.67;1.57;;;;;;;16.97;83.59;96113.78;4283196;33;20191;-64
2022/10/11 11:10:25;;;;;;;1.83;1.73;;;;;;;16.91;82.48;96114.22;4306999;33;20251;-64
2022/10/11 11:13:14;;;;;;;3.40;1.83;;;;;;;16.94;82.40;96111.72;4287946;33;20249;-64
2022/10/11 11:15:55;;;;;;;2.07;1.87;;;;;;;16.93;82.92;96106.66;4303004;33;20345;-64
2022/10/11 11:18:27;;;;;;;1.37;1.30;;;;;;;16.96;82.83;96100.69;4265185;33;20212;-64
2022/10/11 11:21:11;;;;;;;2.10;1.63;;;;;;;17.08;82.99;96104.31;4318598;33;20230;-64
2022/10/11 11:23:51;;;;;;;2.13;2.00;;;;;;;17.14;81.32;96096.91;4307466;33;20193;-64
2022/10/11 11:26:43;;;;;;;5.20;2.27;;;;;;;17.10;83.06;96096.72;4301057;33;20283;-64
2022/10/11 11:29:44;;;;;;;1.43;1.40;;;;;;;17.13;83.43;96098.78;4312091;33;20178;-64
2022/10/11 11:32:19;;;;;;;1.83;1.73;;;;;;;17.24;80.52;96093.13;4290836;33;20323;-64
2022/10/11 11:34:51;;;;;;;1.17;1.17;;;;;;;17.21;81.83;96094.53;4322733;33;20202;-64
2022/10/11 11:37:32;;;;;;;1.17;1.17;;;;;;;17.29;82.69;96088.38;4302096;33;20264;-64
2022/10/11 11:40:02;;;;;;;2.00;1.90;;;;;;;17.18;82.34;96090.59;4309501;33;20201;-64
2022/10/11 11:42:50;;;;;;;1.03;1.03;;;;;;;17.10;83.03;96088.69;4307380;33;20181;-63
2022/10/11 11:45:30;;;;;;;2.60;1.93;;;;;;;17.08;83.26;96087.44;4273087;33;20186;-64
2022/10/11 11:48:12;;;;;;;1.13;1.13;;;;;;;17.04;83.71;96086.50;4287855;33;20236;-64
2022/10/11 11:50:48;;;;;;;2.37;2.27;;;;;;;17.09;83.75;96083.66;4304319;33;20209;-64
2022/10/11 11:53:34;;;;;;;1.87;1.60;;;;;;;17.09;82.66;96089.00;4283697;33;20194;-64